createdAt,value
2023-03-27T00:01:35.892Z,99502.84
2023-03-27T00:04:03.812Z,99496.97
2023-03-27T00:06:34.659Z,99490.88
2023-03-27T00:09:03.857Z,99496.00
2023-03-27T00:11:31.870Z,99510.56
2023-03-27T00:13:59.964Z,99509.75
2023-03-27T00:16:27.733Z,99513.19
2023-03-27T00:18:55.556Z,99517.44
2023-03-27T00:21:23.236Z,99518.22
2023-03-27T00:23:51.425Z,99527.56
2023-03-27T00:26:19.044Z,99529.19
2023-03-27T00:28:47.640Z,99524.94
2023-03-27T00:31:16.127Z,99532.75
2023-03-27T00:33:44.331Z,99526.72
2023-03-27T00:36:11.353Z,99531.78
2023-03-27T00:38:39.840Z,99534.13
2023-03-27T00:41:09.190Z,99540.81
2023-03-27T00:43:36.800Z,99533.91
2023-03-27T00:46:14.651Z,99529.63
2023-03-27T00:48:41.840Z,99536.41
2023-03-27T00:51:09.443Z,99534.63
2023-03-27T00:53:37.313Z,99538.81
2023-03-27T00:56:05.226Z,99549.16
2023-03-27T00:58:34.410Z,99550.78
2023-03-27T01:01:02.585Z,99556.72
2023-03-27T01:03:53.793Z,99544.66
2023-03-27T01:06:21.555Z,99535.28
2023-03-27T01:08:48.786Z,99531.09
2023-03-27T01:11:31.206Z,99518.22
2023-03-27T01:14:11.040Z,99529.44
2023-03-27T01:17:07.793Z,99538.81
2023-03-27T01:20:05.881Z,99536.91
2023-03-27T01:22:39.378Z,99551.25
2023-03-27T01:25:24.516Z,99559.75
2023-03-27T01:28:18.261Z,99552.06
2023-03-27T01:30:51.210Z,99554.66
2023-03-27T01:33:31.034Z,99530.75
2023-03-27T01:36:46.520Z,99536.78
2023-03-27T01:39:28.650Z,99549.66
2023-03-27T01:42:06.996Z,99569.31
2023-03-27T01:44:45.777Z,99569.28
2023-03-27T01:47:32.655Z,99582.88
2023-03-27T01:50:08.352Z,99587.94
2023-03-27T01:52:40.914Z,99588.81
2023-03-27T01:55:11.664Z,99587.13
2023-03-27T01:57:50.392Z,99582.94
2023-03-27T02:00:22.036Z,99592.41
2023-03-27T02:03:16.503Z,99599.25
2023-03-27T02:05:51.031Z,99584.41
2023-03-27T02:08:21.350Z,99572.19
2023-03-27T02:10:50.571Z,99567.06
2023-03-27T02:13:21.494Z,99584.13
2023-03-27T02:15:48.907Z,99590.03
2023-03-27T02:18:23.306Z,99583.16
2023-03-27T02:20:53.782Z,99580.56
2023-03-27T02:23:23.097Z,99594.19
2023-03-27T02:25:50.859Z,99596.75
2023-03-27T02:28:36.716Z,99603.69
2023-03-27T02:31:35.352Z,99615.28
2023-03-27T02:34:27.099Z,99605.63
2023-03-27T02:37:36.014Z,99611.44
2023-03-27T02:40:14.980Z,99607.91
2023-03-27T02:42:51.839Z,99611.34
2023-03-27T02:45:26.546Z,99612.06
2023-03-27T02:48:06.044Z,99623.19
2023-03-27T02:50:38.386Z,99617.31
2023-03-27T02:53:05.933Z,99622.72
2023-03-27T02:55:36.321Z,99612.81
2023-03-27T02:58:08.582Z,99612.13
2023-03-27T03:00:39.731Z,99610.72
2023-03-27T03:03:15.351Z,99621.16
2023-03-27T03:05:44.108Z,99621.41
2023-03-27T03:08:11.790Z,99632.63
2023-03-27T03:10:45.146Z,99627.56
2023-03-27T03:13:13.410Z,99635.19
2023-03-27T03:15:41.248Z,99649.88
2023-03-27T03:18:09.244Z,99656.09
2023-03-27T03:20:36.956Z,99651.97
2023-03-27T03:23:05.075Z,99647.03
2023-03-27T03:25:33.202Z,99640.19
2023-03-27T03:28:01.319Z,99634.22
2023-03-27T03:30:31.866Z,99637.59
2023-03-27T03:33:00.307Z,99646.25
2023-03-27T03:35:28.278Z,99649.69
2023-03-27T03:37:58.891Z,99649.81
2023-03-27T03:40:26.837Z,99646.41
2023-03-27T03:42:54.454Z,99642.25
2023-03-27T03:45:22.493Z,99644.91
2023-03-27T03:47:53.119Z,99650.88
2023-03-27T03:50:21.331Z,99661.97
2023-03-27T03:52:49.293Z,99672.25
2023-03-27T03:55:17.720Z,99685.06
2023-03-27T03:57:50.239Z,99690.22
2023-03-27T04:00:18.732Z,99691.94
2023-03-27T04:02:46.472Z,99683.28
2023-03-27T04:05:14.476Z,99679.75
2023-03-27T04:07:42.463Z,99689.88
2023-03-27T04:10:13.585Z,99692.41
2023-03-27T04:12:41.264Z,99691.47
2023-03-27T04:15:09.360Z,99694.03
2023-03-27T04:17:38.434Z,99700.72
2023-03-27T04:20:08.925Z,99702.38
2023-03-27T04:22:38.226Z,99690.25
2023-03-27T04:25:08.365Z,99694.47
2023-03-27T04:27:36.370Z,99690.91
2023-03-27T04:30:04.857Z,99684.88
2023-03-27T04:32:32.986Z,99684.81
2023-03-27T04:35:00.972Z,99687.25
2023-03-27T04:37:29.046Z,99691.28
2023-03-27T04:39:58.405Z,99697.22
2023-03-27T04:42:27.185Z,99692.03
2023-03-27T04:44:55.567Z,99688.44
2023-03-27T04:47:23.928Z,99683.22
2023-03-27T04:49:52.118Z,99688.25
2023-03-27T04:52:20.807Z,99698.50
2023-03-27T04:54:48.823Z,99701.06
2023-03-27T04:57:19.202Z,99703.72
2023-03-27T04:59:47.208Z,99705.47
2023-03-27T05:02:16.239Z,99707.94
2023-03-27T05:04:44.734Z,99706.16
2023-03-27T05:07:12.385Z,99711.19
2023-03-27T05:09:40.142Z,99727.16
2023-03-27T05:12:08.948Z,99709.78
2023-03-27T05:14:36.817Z,99719.97
2023-03-27T05:17:05.621Z,99716.56
2023-03-27T05:19:34.201Z,99724.34
2023-03-27T05:22:02.704Z,99733.06
2023-03-27T05:24:30.589Z,99728.81
2023-03-27T05:26:58.720Z,99740.06
2023-03-27T05:29:26.887Z,99737.56
2023-03-27T05:31:54.743Z,99730.78
2023-03-27T05:34:22.791Z,99729.22
2023-03-27T05:36:51.288Z,99744.44
2023-03-27T05:39:19.215Z,99757.97
2023-03-27T05:41:47.584Z,99758.81
2023-03-27T05:44:16.129Z,99754.41
2023-03-27T05:46:44.068Z,99758.00
2023-03-27T05:49:12.282Z,99757.31
2023-03-27T05:51:40.422Z,99767.56
2023-03-27T05:54:15.155Z,99766.97
2023-03-27T05:56:44.065Z,99767.09
2023-03-27T05:59:11.840Z,99763.88
2023-03-27T06:01:42.862Z,99771.53
2023-03-27T06:04:11.182Z,99786.09
2023-03-27T06:06:39.374Z,99786.06
2023-03-27T06:09:07.811Z,99780.94
2023-03-27T06:11:35.500Z,99781.94
2023-03-27T06:14:02.944Z,99787.56
2023-03-27T06:16:30.782Z,99798.63
2023-03-27T06:18:59.176Z,99801.94
2023-03-27T06:21:27.544Z,99795.00
2023-03-27T06:23:56.409Z,99799.13
2023-03-27T06:26:24.896Z,99793.34
2023-03-27T06:28:54.324Z,99801.94
2023-03-27T06:31:22.159Z,99799.78
2023-03-27T06:33:50.291Z,99804.72
2023-03-27T06:36:18.197Z,99800.06
2023-03-27T06:38:46.475Z,99796.91
2023-03-27T06:41:15.549Z,99796.13
2023-03-27T06:43:43.622Z,99803.69
2023-03-27T06:46:11.929Z,99803.91
2023-03-27T06:48:40.000Z,99805.88
2023-03-27T06:51:08.075Z,99817.97
2023-03-27T06:53:38.106Z,99809.66
2023-03-27T06:56:09.271Z,99816.91
2023-03-27T06:58:37.424Z,99820.50
2023-03-27T07:01:06.426Z,99824.72
2023-03-27T07:03:34.543Z,99829.00
2023-03-27T07:06:02.320Z,99835.00
2023-03-27T07:08:29.979Z,99828.06
2023-03-27T07:11:10.588Z,99830.75
2023-03-27T07:13:41.245Z,99840.44
2023-03-27T07:16:14.167Z,99848.16
2023-03-27T07:18:42.219Z,99850.06
2023-03-27T07:21:10.263Z,99842.69
2023-03-27T07:23:38.631Z,99845.53
2023-03-27T07:26:08.277Z,99853.56
2023-03-27T07:28:38.766Z,99849.44
2023-03-27T07:31:25.995Z,99845.09
2023-03-27T07:33:58.723Z,99854.56
2023-03-27T07:36:26.612Z,99856.41
2023-03-27T07:38:54.525Z,99848.78
2023-03-27T07:41:22.914Z,99847.13
2023-03-27T07:43:50.659Z,99845.63
2023-03-27T07:46:19.046Z,99851.25
2023-03-27T07:48:47.154Z,99854.50
2023-03-27T07:51:15.451Z,99839.28
2023-03-27T07:53:43.746Z,99849.06
2023-03-27T07:56:11.675Z,99851.91
2023-03-27T07:58:39.770Z,99845.94
2023-03-27T08:01:07.865Z,99848.81
2023-03-27T08:03:36.091Z,99854.09
2023-03-27T08:06:03.441Z,99857.50
2023-03-27T08:08:31.380Z,99871.34
2023-03-27T08:10:59.803Z,99880.84
2023-03-27T08:13:27.858Z,99874.78
2023-03-27T08:16:07.986Z,99879.91
2023-03-27T08:18:36.546Z,99873.00
2023-03-27T08:21:04.548Z,99872.13
2023-03-27T08:23:33.895Z,99866.16
2023-03-27T08:26:01.713Z,99858.50
2023-03-27T08:28:32.731Z,99861.94
2023-03-27T08:31:02.930Z,99864.56
2023-03-27T08:33:31.043Z,99866.41
2023-03-27T08:35:59.514Z,99870.03
2023-03-27T08:38:28.709Z,99874.44
2023-03-27T08:40:59.208Z,99876.31
2023-03-27T08:43:28.950Z,99878.28
2023-03-27T08:45:59.208Z,99872.41
2023-03-27T08:48:35.364Z,99881.28
2023-03-27T08:51:05.608Z,99889.16
2023-03-27T08:53:47.555Z,99876.47
2023-03-27T08:56:15.423Z,99877.44
2023-03-27T08:58:43.587Z,99875.00
2023-03-27T09:01:55.382Z,99883.72
2023-03-27T09:04:28.181Z,99893.31
2023-03-27T09:07:07.341Z,99888.28
2023-03-27T09:10:00.628Z,99894.31
2023-03-27T09:13:06.781Z,99905.66
2023-03-27T09:15:37.733Z,99906.53
2023-03-27T09:18:13.593Z,99913.47
2023-03-27T09:20:46.431Z,99916.09
2023-03-27T09:23:43.063Z,99910.06
2023-03-27T09:26:23.355Z,99916.09
2023-03-27T09:28:56.249Z,99918.72
2023-03-27T09:31:33.457Z,99920.47
2023-03-27T09:34:03.988Z,99919.59
2023-03-27T09:36:32.368Z,99925.63
2023-03-27T09:39:05.848Z,99926.53
2023-03-27T09:41:44.974Z,99914.41
2023-03-27T09:44:21.114Z,99930.81
2023-03-27T09:46:50.132Z,99924.78
2023-03-27T09:49:25.522Z,99927.34
2023-03-27T09:51:53.826Z,99928.25
2023-03-27T09:54:22.453Z,99928.22
2023-03-27T09:57:13.706Z,99930.81
2023-03-27T09:59:58.579Z,99923.03
2023-03-27T10:02:30.121Z,99928.19
2023-03-27T10:04:59.311Z,99935.09
2023-03-27T10:07:27.464Z,99930.72
2023-03-27T10:10:15.869Z,99935.91
2023-03-27T10:12:43.491Z,99942.78
2023-03-27T10:15:49.240Z,99934.09
2023-03-27T10:18:32.506Z,99935.84
2023-03-27T10:21:01.616Z,99937.53
2023-03-27T10:23:30.536Z,99940.09
2023-03-27T10:26:04.441Z,99946.97
2023-03-27T10:28:35.341Z,99940.81
2023-03-27T10:31:31.831Z,99942.50
2023-03-27T10:34:02.131Z,99955.50
2023-03-27T10:36:33.688Z,99939.81
2023-03-27T10:39:09.046Z,99945.84
2023-03-27T10:41:37.211Z,99944.88
2023-03-27T10:44:13.022Z,99952.53
2023-03-27T10:46:41.360Z,99944.59
2023-03-27T10:49:25.647Z,99953.28
2023-03-27T10:52:03.206Z,99954.66
2023-03-27T10:54:51.773Z,99951.00
2023-03-27T10:57:32.000Z,99954.63
2023-03-27T11:00:19.798Z,99951.16
2023-03-27T11:02:54.408Z,99957.59
2023-03-27T11:05:24.198Z,99956.25
2023-03-27T11:07:55.918Z,99951.84
2023-03-27T11:10:58.385Z,99961.25
2023-03-27T11:13:32.423Z,99961.75
2023-03-27T11:16:21.285Z,99959.00
2023-03-27T11:19:10.804Z,99958.72
2023-03-27T11:21:44.667Z,99958.25
2023-03-27T11:24:28.762Z,99956.25
2023-03-27T11:27:12.274Z,99959.78
2023-03-27T11:29:52.744Z,99961.50
2023-03-27T11:32:33.708Z,99958.06
2023-03-27T11:35:24.385Z,99952.50
2023-03-27T11:38:03.529Z,99962.44
2023-03-27T11:40:36.438Z,99958.41
2023-03-27T11:43:04.390Z,99948.53
2023-03-27T11:45:38.178Z,99949.66
2023-03-27T11:48:30.115Z,99947.84
2023-03-27T11:51:03.490Z,99954.59
2023-03-27T11:53:33.481Z,99957.66
2023-03-27T11:56:09.138Z,99963.78
2023-03-27T11:59:12.983Z,99978.28
2023-03-27T12:02:10.049Z,99982.09
2023-03-27T12:04:51.541Z,99971.59
2023-03-27T12:07:36.092Z,99981.56
2023-03-27T12:10:28.519Z,99973.69
2023-03-27T12:13:17.624Z,99970.84
2023-03-27T12:16:03.012Z,99962.63
2023-03-27T12:19:00.562Z,99956.91
2023-03-27T12:21:48.803Z,99965.34
2023-03-27T12:24:53.407Z,99965.06
2023-03-27T12:28:01.433Z,99962.97
2023-03-27T12:30:40.149Z,99959.84
2023-03-27T12:33:07.128Z,99966.50
2023-03-27T12:35:38.621Z,99966.41
2023-03-27T12:38:32.254Z,99965.28
2023-03-27T12:41:16.074Z,99964.28
2023-03-27T12:43:46.846Z,99969.63
2023-03-27T12:46:29.094Z,99963.72
2023-03-27T12:49:08.099Z,99974.44
2023-03-27T12:51:53.743Z,99977.66
2023-03-27T12:54:30.537Z,99979.03
2023-03-27T12:57:35.923Z,99972.38
2023-03-27T13:00:10.434Z,99979.19
2023-03-27T13:03:09.761Z,99975.34
2023-03-27T13:05:39.939Z,99983.50
2023-03-27T13:08:30.145Z,99977.47
2023-03-27T13:11:19.473Z,99988.09
2023-03-27T13:13:46.584Z,99985.50
2023-03-27T13:16:45.720Z,99988.22
2023-03-27T13:19:36.775Z,99990.81
2023-03-27T13:22:28.446Z,99992.31
2023-03-27T13:25:11.396Z,99989.13
2023-03-27T13:27:50.154Z,99984.16
2023-03-27T13:30:41.426Z,99995.16
2023-03-27T13:33:12.988Z,99992.19
2023-03-27T13:35:41.959Z,99984.84
2023-03-27T13:38:10.680Z,100000.28
2023-03-27T13:40:39.888Z,100002.25
2023-03-27T13:43:15.248Z,100000.78
2023-03-27T13:45:47.180Z,100000.16
2023-03-27T13:48:38.911Z,100011.31
2023-03-27T13:51:31.123Z,99998.13
2023-03-27T13:54:19.977Z,100007.94
2023-03-27T13:56:55.465Z,100017.16
2023-03-27T14:00:03.335Z,100011.88
2023-03-27T14:02:36.509Z,100014.16
2023-03-27T14:05:35.678Z,100016.69
2023-03-27T14:08:45.017Z,100021.16
2023-03-27T14:11:37.959Z,100020.84
2023-03-27T14:14:23.453Z,100024.78
2023-03-27T14:17:28.096Z,100026.03
2023-03-27T14:20:00.907Z,100028.03
2023-03-27T14:22:54.027Z,100027.34
2023-03-27T14:25:49.814Z,100033.69
2023-03-27T14:28:53.960Z,100035.69
2023-03-27T14:31:21.321Z,100041.03
2023-03-27T14:34:01.893Z,100042.06
2023-03-27T14:36:30.337Z,100051.78
2023-03-27T14:39:16.621Z,100055.31
2023-03-27T14:41:53.007Z,100052.78
2023-03-27T14:44:20.729Z,100045.88
2023-03-27T14:46:49.058Z,100044.22
2023-03-27T14:49:24.776Z,100041.75
2023-03-27T14:51:53.725Z,100048.06
2023-03-27T14:54:27.182Z,100054.22
2023-03-27T14:57:00.474Z,100057.75
2023-03-27T14:59:30.600Z,100059.56
2023-03-27T15:01:58.546Z,100069.16
2023-03-27T15:04:27.147Z,100076.13
2023-03-27T15:06:56.912Z,100080.50
2023-03-27T15:09:24.971Z,100081.44
2023-03-27T15:11:56.192Z,100082.38
2023-03-27T15:14:30.375Z,100078.97
2023-03-27T15:17:15.663Z,100085.91
2023-03-27T15:19:53.849Z,100091.13
2023-03-27T15:22:24.059Z,100104.09
2023-03-27T15:24:57.304Z,100109.28
2023-03-27T15:27:31.805Z,100111.84
2023-03-27T15:30:02.365Z,100115.28
2023-03-27T15:32:34.146Z,100117.94
2023-03-27T15:35:03.482Z,100117.09
2023-03-27T15:37:31.882Z,100131.88
2023-03-27T15:40:09.513Z,100136.16
2023-03-27T15:42:48.184Z,100145.59
2023-03-27T15:45:23.125Z,100151.63
2023-03-27T15:48:06.859Z,100145.53
2023-03-27T15:50:34.950Z,100146.41
2023-03-27T15:53:03.309Z,100153.34
2023-03-27T15:55:44.649Z,100166.41
2023-03-27T15:58:20.518Z,100167.31
2023-03-27T16:00:48.229Z,100168.28
2023-03-27T16:03:25.524Z,100174.41
2023-03-27T16:05:56.757Z,100170.00
2023-03-27T16:08:34.946Z,100180.44
2023-03-27T16:11:02.310Z,100180.03
2023-03-27T16:13:54.928Z,100181.44
2023-03-27T16:16:27.233Z,100181.25
2023-03-27T16:18:55.377Z,100181.22
2023-03-27T16:21:23.852Z,100190.31
2023-03-27T16:23:51.920Z,100204.25
2023-03-27T16:26:23.135Z,100207.38
2023-03-27T16:28:50.777Z,100206.13
2023-03-27T16:31:20.043Z,100217.47
2023-03-27T16:33:48.203Z,100227.09
2023-03-27T16:36:16.225Z,100236.00
2023-03-27T16:38:44.019Z,100246.84
2023-03-27T16:41:15.968Z,100248.38
2023-03-27T16:43:44.382Z,100258.25
2023-03-27T16:46:29.776Z,100261.31
2023-03-27T16:49:17.007Z,100285.59
2023-03-27T16:52:04.475Z,100284.56
2023-03-27T16:54:33.721Z,100287.69
2023-03-27T16:57:01.119Z,100299.59
2023-03-27T16:59:29.218Z,100300.16
2023-03-27T17:01:57.383Z,100303.16
2023-03-27T17:04:25.685Z,100298.38
2023-03-27T17:06:53.548Z,100303.03
2023-03-27T17:09:22.738Z,100301.63
2023-03-27T17:11:53.947Z,100316.53
2023-03-27T17:14:22.103Z,100326.16
2023-03-27T17:16:51.265Z,100333.13
2023-03-27T17:19:18.852Z,100338.50
2023-03-27T17:21:47.205Z,100344.69
2023-03-27T17:24:14.912Z,100348.47
2023-03-27T17:26:43.458Z,100350.47
2023-03-27T17:29:11.498Z,100355.91
2023-03-27T17:31:39.477Z,100371.72
2023-03-27T17:34:07.870Z,100379.66
2023-03-27T17:36:44.936Z,100397.06
2023-03-27T17:39:15.504Z,100393.56
2023-03-27T17:41:44.110Z,100397.88
2023-03-27T17:44:13.267Z,100407.31
2023-03-27T17:46:41.200Z,100415.81
2023-03-27T17:49:09.005Z,100409.69
2023-03-27T17:51:37.205Z,100417.31
2023-03-27T17:54:05.898Z,100422.38
2023-03-27T17:56:33.932Z,100433.59
2023-03-27T17:59:02.859Z,100431.78
2023-03-27T18:01:34.030Z,100436.84
2023-03-27T18:04:01.838Z,100443.50
2023-03-27T18:06:30.310Z,100439.09
2023-03-27T18:08:58.235Z,100448.50
2023-03-27T18:11:26.018Z,100461.34
2023-03-27T18:13:54.086Z,100471.63
2023-03-27T18:16:23.231Z,100481.84
2023-03-27T18:18:52.581Z,100483.56
2023-03-27T18:21:20.985Z,100504.19
2023-03-27T18:23:49.117Z,100515.44
2023-03-27T18:26:16.738Z,100511.31
2023-03-27T18:28:47.936Z,100523.41
2023-03-27T18:31:17.837Z,100526.94
2023-03-27T18:33:46.060Z,100528.72
2023-03-27T18:36:14.187Z,100540.63
2023-03-27T18:38:42.320Z,100539.00
2023-03-27T18:41:10.415Z,100545.03
2023-03-27T18:43:38.855Z,100557.06
2023-03-27T18:46:08.483Z,100563.81
2023-03-27T18:48:36.489Z,100566.28
2023-03-27T18:51:07.971Z,100573.00
2023-03-27T18:53:35.816Z,100569.41
2023-03-27T18:56:03.890Z,100583.09
2023-03-27T18:58:32.281Z,100585.44
2023-03-27T19:01:00.081Z,100588.91
2023-03-27T19:03:30.365Z,100594.91
2023-03-27T19:06:00.411Z,100605.28
2023-03-27T19:08:28.616Z,100614.66
2023-03-27T19:10:57.900Z,100626.56
2023-03-27T19:13:25.956Z,100629.03
2023-03-27T19:15:54.034Z,100636.88
2023-03-27T19:18:22.139Z,100644.53
2023-03-27T19:20:50.333Z,100653.78
2023-03-27T19:23:18.207Z,100658.78
2023-03-27T19:25:49.588Z,100666.47
2023-03-27T19:28:17.448Z,100669.84
2023-03-27T19:30:48.402Z,100681.84
2023-03-27T19:33:15.908Z,100692.94
2023-03-27T19:35:44.087Z,100699.66
2023-03-27T19:38:11.959Z,100699.22
2023-03-27T19:40:39.663Z,100704.91
2023-03-27T19:43:07.796Z,100709.91
2023-03-27T19:45:36.021Z,100714.03
2023-03-27T19:48:04.099Z,100717.25
2023-03-27T19:50:31.433Z,100725.72
2023-03-27T19:53:08.190Z,100729.06
2023-03-27T19:55:36.914Z,100742.69
2023-03-27T19:58:04.502Z,100746.00
2023-03-27T20:00:32.280Z,100751.81
2023-03-27T20:03:00.357Z,100762.84
2023-03-27T20:05:29.733Z,100767.03
2023-03-27T20:07:57.380Z,100773.78
2023-03-27T20:10:27.069Z,100788.22
2023-03-27T20:12:54.771Z,100800.03
2023-03-27T20:15:22.609Z,100799.09
2023-03-27T20:17:53.563Z,100805.84
2023-03-27T20:20:21.576Z,100805.78
2023-03-27T20:22:57.511Z,100812.66
2023-03-27T20:25:25.455Z,100822.75
2023-03-27T20:27:53.113Z,100827.75
2023-03-27T20:30:21.483Z,100834.50
2023-03-27T20:32:49.155Z,100835.25
2023-03-27T20:35:24.184Z,100846.28
2023-03-27T20:37:57.798Z,100847.78
2023-03-27T20:40:26.357Z,100852.75
2023-03-27T20:43:03.487Z,100862.06
2023-03-27T20:45:31.561Z,100877.47
2023-03-27T20:48:05.681Z,100866.94
2023-03-27T20:50:35.362Z,100871.03
2023-03-27T20:53:04.856Z,100884.63
2023-03-27T20:55:41.561Z,100892.31
2023-03-27T20:58:20.145Z,100891.91
2023-03-27T21:00:48.883Z,100915.84
2023-03-27T21:03:16.844Z,100915.78
2023-03-27T21:05:44.805Z,100935.84
2023-03-27T21:08:12.884Z,100939.34
2023-03-27T21:10:40.763Z,100941.00
2023-03-27T21:13:08.345Z,100958.16
2023-03-27T21:15:36.373Z,100971.03
2023-03-27T21:18:05.423Z,100971.91
2023-03-27T21:20:35.360Z,100973.53
2023-03-27T21:23:03.634Z,100987.06
2023-03-27T21:25:31.714Z,100996.38
2023-03-27T21:27:59.344Z,101001.38
2023-03-27T21:30:46.539Z,101003.75
2023-03-27T21:33:16.178Z,101009.44
2023-03-27T21:35:45.840Z,101003.22
2023-03-27T21:38:14.595Z,101008.94
2023-03-27T21:40:41.598Z,101018.28
2023-03-27T21:43:09.484Z,101016.44
2023-03-27T21:45:40.434Z,101028.28
2023-03-27T21:48:10.571Z,101033.72
2023-03-27T21:50:39.739Z,101031.72
2023-03-27T21:53:08.021Z,101037.56
2023-03-27T21:55:35.938Z,101060.13
2023-03-27T21:58:04.472Z,101046.50
2023-03-27T22:00:32.574Z,101052.44
2023-03-27T22:03:01.040Z,101051.41
2023-03-27T22:05:29.111Z,101038.34
2023-03-27T22:07:57.755Z,101049.63
2023-03-27T22:10:25.443Z,101056.81
2023-03-27T22:12:53.273Z,101061.41
2023-03-27T22:15:21.211Z,101071.78
2023-03-27T22:17:49.142Z,101076.88
2023-03-27T22:20:17.220Z,101082.31
2023-03-27T22:22:45.111Z,101085.06
2023-03-27T22:25:13.782Z,101091.16
2023-03-27T22:27:42.035Z,101093.84
2023-03-27T22:30:12.781Z,101102.38
2023-03-27T22:32:43.418Z,101105.66
2023-03-27T22:35:11.365Z,101113.28
2023-03-27T22:37:39.471Z,101115.81
2023-03-27T22:40:10.574Z,101119.91
2023-03-27T22:42:38.330Z,101122.22
2023-03-27T22:45:06.928Z,101138.34
2023-03-27T22:47:36.120Z,101144.97
2023-03-27T22:50:06.455Z,101144.03
2023-03-27T22:52:34.072Z,101151.63
2023-03-27T22:55:01.998Z,101155.69
2023-03-27T22:57:30.107Z,101175.25
2023-03-27T22:59:58.162Z,101176.75
2023-03-27T23:02:26.007Z,101186.03
2023-03-27T23:04:54.183Z,101192.78
2023-03-27T23:07:21.923Z,101197.78
2023-03-27T23:09:50.383Z,101211.47
2023-03-27T23:12:18.482Z,101218.41
2023-03-27T23:14:46.299Z,101235.53
2023-03-27T23:17:14.106Z,101230.88
2023-03-27T23:19:41.995Z,101233.09
2023-03-27T23:22:10.545Z,101234.66
2023-03-27T23:24:39.003Z,101238.03
2023-03-27T23:27:08.589Z,101237.00
2023-03-27T23:29:36.740Z,101243.63
2023-03-27T23:32:05.050Z,101253.66
2023-03-27T23:34:33.177Z,101256.88
2023-03-27T23:37:00.773Z,101261.53
2023-03-27T23:39:28.517Z,101258.00
2023-03-27T23:41:57.239Z,101256.75
2023-03-27T23:44:25.303Z,101269.16
2023-03-27T23:46:56.511Z,101270.97
2023-03-27T23:49:24.550Z,101277.22
2023-03-27T23:51:53.141Z,101281.06
2023-03-27T23:54:22.265Z,101288.50
2023-03-27T23:56:50.528Z,101296.63
2023-03-27T23:59:18.653Z,101307.69
